Time;durP1;ratioP1;P1;durP2;ratioP2;P2;SDS_P1;SDS_P2;PMS_P1;PMS_P2;Temp;Humidity;BMP_temperature;BMP_pressure;BME280_temperature;BME280_humidity;BME280_pressure;Samples;Min_cycle;Max_cycle;Signal;HPM_P1;HPM_P2
2023/05/14 00:00:07;;;;;;;;;;;;;;;;;;4993891;28;19914;-79
2023/05/14 00:02:32;;;;;;;;;;;;;;;;;;5038209;22;19925;-81
2023/05/14 00:04:57;;;;;;;;;;;;;;;;;;5035929;28;19966;-81
2023/05/14 00:07:29;;;;;;;;;;;;;;;;;;5035188;28;19970;-80
2023/05/14 00:09:54;;;;;;;;;;;;;;;;;;5052909;28;19924;-79
2023/05/14 00:12:20;;;;;;;;;;;;;;;;;;5040609;28;19913;-81
2023/05/14 00:14:45;;;;;;;;;;;;;;;;;;5033636;28;19914;-81
2023/05/14 00:17:10;;;;;;;;;;;;;;;;;;5015978;28;20364;-80
2023/05/14 00:19:36;;;;;;;;;;;;;;;;;;5033322;28;19917;-81
2023/05/14 00:22:01;;;;;;;;;;;;;;;;;;5015804;28;19917;-81
2023/05/14 00:24:27;;;;;;;;;;;;;;;;;;5040140;28;19977;-85
2023/05/14 00:26:52;;;;;;;;;;;;;;;;;;5044352;28;19913;-84
2023/05/14 00:29:18;;;;;;;;;;;;;;;;;;5042717;28;19921;-86
2023/05/14 00:31:43;;;;;;;;;;;;;;;;;;5038953;28;19913;-86
2023/05/14 00:34:09;;;;;;;;;;;;;;;;;;5038131;28;20431;-84
2023/05/14 00:36:34;;;;;;;;;;;;;;;;;;5035581;28;19920;-84
2023/05/14 00:38:59;;;;;;;;;;;;;;;;;;5032263;28;20005;-77
2023/05/14 00:41:25;;;;;;;;;;;;;;;;;;5030981;28;19913;-78
2023/05/14 00:43:50;;;;;;;;;;;;;;;;;;5031344;28;19939;-78
2023/05/14 00:46:16;;;;;;;;;;;;;;;;;;5024440;28;20373;-78
2023/05/14 00:48:41;;;;;;;;;;;;;;;;;;5012652;28;20011;-78
2023/05/14 00:51:06;;;;;;;;;;;;;;;;;;5012338;28;19913;-79
2023/05/14 00:53:32;;;;;;;;;;;;;;;;;;5011285;28;20272;-78
2023/05/14 00:55:57;;;;;;;;;;;;;;;;;;5016861;28;19952;-78
2023/05/14 00:58:22;;;;;;;;;;;;;;;;;;5047795;28;20383;-77
2023/05/14 01:00:48;;;;;;;;;;;;;;;;;;5030966;28;19917;-79
2023/05/14 01:03:13;;;;;;;;;;;;;;;;;;5046266;28;19924;-78
2023/05/14 01:05:39;;;;;;;;;;;;;;;;;;5031761;28;20004;-78
2023/05/14 01:08:05;;;;;;;;;;;;;;;;;;5047433;28;19952;-78
2023/05/14 01:10:32;;;;;;;;;;;;;;;;;;5031041;28;20419;-79
2023/05/14 01:12:57;;;;;;;;;;;;;;;;;;5032239;28;19919;-78
2023/05/14 01:15:23;;;;;;;;;;;;;;;;;;5031166;28;20059;-78
2023/05/14 01:17:48;;;;;;;;;;;;;;;;;;5032166;28;20448;-78
2023/05/14 01:20:14;;;;;;;;;;;;;;;;;;5030809;28;19920;-78
2023/05/14 01:22:39;;;;;;;;;;;;;;;;;;5047404;28;20391;-79
2023/05/14 01:25:05;;;;;;;;;;;;;;;;;;5032346;28;19920;-79
2023/05/14 01:27:30;;;;;;;;;;;;;;;;;;5047520;28;19913;-78
2023/05/14 01:29:55;;;;;;;;;;;;;;;;;;5031887;28;19917;-78
2023/05/14 01:32:22;;;;;;;;;;;;;;;;;;5032084;28;19941;-78
2023/05/14 01:34:47;;;;;;;;;;;;;;;;;;5047432;28;20431;-79
2023/05/14 01:37:13;;;;;;;;;;;;;;;;;;5030800;28;19949;-79
2023/05/14 01:39:38;;;;;;;;;;;;;;;;;;5047283;28;20372;-78
2023/05/14 01:42:03;;;;;;;;;;;;;;;;;;5030622;28;19914;-78
2023/05/14 01:44:29;;;;;;;;;;;;;;;;;;5030661;28;19955;-78
2023/05/14 01:46:54;;;;;;;;;;;;;;;;;;5026798;28;20381;-78
2023/05/14 01:49:20;;;;;;;;;;;;;;;;;;5010931;28;20467;-79
2023/05/14 01:51:45;;;;;;;;;;;;;;;;;;5014270;28;19917;-80
2023/05/14 01:54:10;;;;;;;;;;;;;;;;;;5014677;28;20000;-79
2023/05/14 01:56:36;;;;;;;;;;;;;;;;;;5007627;28;20296;-79
2023/05/14 01:59:01;;;;;;;;;;;;;;;;;;5051036;28;20012;-79
2023/05/14 02:01:26;;;;;;;;;;;;;;;;;;5050696;28;19913;-78
2023/05/14 02:03:52;;;;;;;;;;;;;;;;;;5050974;28;19984;-78
2023/05/14 02:06:17;;;;;;;;;;;;;;;;;;5034838;28;20004;-78
2023/05/14 02:08:43;;;;;;;;;;;;;;;;;;5052896;28;19924;-78
2023/05/14 02:11:08;;;;;;;;;;;;;;;;;;5036667;28;20384;-78
2023/05/14 02:13:34;;;;;;;;;;;;;;;;;;5037073;28;19913;-78
2023/05/14 02:15:59;;;;;;;;;;;;;;;;;;5054854;28;19954;-77
2023/05/14 02:18:25;;;;;;;;;;;;;;;;;;5054838;28;20471;-78
2023/05/14 02:20:50;;;;;;;;;;;;;;;;;;5037491;28;20004;-78
2023/05/14 02:23:16;;;;;;;;;;;;;;;;;;5036097;28;19913;-78
2023/05/14 02:25:41;;;;;;;;;;;;;;;;;;5034459;28;20283;-78
2023/05/14 02:28:06;;;;;;;;;;;;;;;;;;5035122;28;19917;-79
2023/05/14 02:30:32;;;;;;;;;;;;;;;;;;5033796;28;19979;-77
2023/05/14 02:32:57;;;;;;;;;;;;;;;;;;5035289;28;20491;-78
2023/05/14 02:35:23;;;;;;;;;;;;;;;;;;5050654;28;19920;-77
2023/05/14 02:37:48;;;;;;;;;;;;;;;;;;5033928;28;20000;-77
2023/05/14 02:40:13;;;;;;;;;;;;;;;;;;5050289;28;19920;-79
2023/05/14 02:42:39;;;;;;;;;;;;;;;;;;5017206;28;19913;-78
2023/05/14 02:45:04;;;;;;;;;;;;;;;;;;5034902;28;19921;-78
2023/05/14 02:47:30;;;;;;;;;;;;;;;;;;5017256;28;19914;-78
2023/05/14 02:49:56;;;;;;;;;;;;;;;;;;5012417;28;20450;-77
2023/05/14 02:52:21;;;;;;;;;;;;;;;;;;5014996;28;19913;-78
2023/05/14 02:54:47;;;;;;;;;;;;;;;;;;5013622;28;19960;-79
2023/05/14 02:57:12;;;;;;;;;;;;;;;;;;5027145;28;19913;-78
2023/05/14 02:59:38;;;;;;;;;;;;;;;;;;5032600;28;20003;-78
2023/05/14 03:02:03;;;;;;;;;;;;;;;;;;5032786;28;19988;-77
2023/05/14 03:04:28;;;;;;;;;;;;;;;;;;5049569;28;19966;-78
2023/05/14 03:06:54;;;;;;;;;;;;;;;;;;5032915;28;19951;-78
2023/05/14 03:09:19;;;;;;;;;;;;;;;;;;5049465;28;20292;-78
2023/05/14 03:11:44;;;;;;;;;;;;;;;;;;5032768;28;20372;-78
2023/05/14 03:14:10;;;;;;;;;;;;;;;;;;5032909;28;19952;-79
2023/05/14 03:16:35;;;;;;;;;;;;;;;;;;5034021;28;20315;-77
2023/05/14 03:19:01;;;;;;;;;;;;;;;;;;5032711;28;20077;-78
2023/05/14 03:21:26;;;;;;;;;;;;;;;;;;5032485;28;19920;-78
2023/05/14 03:23:51;;;;;;;;;;;;;;;;;;5034010;28;19917;-78
2023/05/14 03:26:17;;;;;;;;;;;;;;;;;;5049323;28;19919;-77
2023/05/14 03:28:42;;;;;;;;;;;;;;;;;;5032573;28;19944;-78
2023/05/14 03:31:08;;;;;;;;;;;;;;;;;;5032326;28;19952;-78
2023/05/14 03:33:35;;;;;;;;;;;;;;;;;;5049114;28;20004;-77
2023/05/14 03:36:00;;;;;;;;;;;;;;;;;;5032591;28;20000;-77
2023/05/14 03:38:26;;;;;;;;;;;;;;;;;;5033525;28;19919;-78
2023/05/14 03:40:51;;;;;;;;;;;;;;;;;;5032356;28;19914;-78
2023/05/14 03:43:16;;;;;;;;;;;;;;;;;;5032349;28;20020;-77
2023/05/14 03:45:42;;;;;;;;;;;;;;;;;;5046709;28;19913;-78
2023/05/14 03:48:08;;;;;;;;;;;;;;;;;;5013624;28;20439;-79
2023/05/14 03:50:33;;;;;;;;;;;;;;;;;;5012339;28;19978;-77
2023/05/14 03:52:58;;;;;;;;;;;;;;;;;;5012279;28;20273;-78
2023/05/14 03:55:24;;;;;;;;;;;;;;;;;;5012464;28;19913;-79
2023/05/14 03:57:49;;;;;;;;;;;;;;;;;;5015644;28;19913;-77
2023/05/14 04:00:15;;;;;;;;;;;;;;;;;;5032091;28;20438;-78
2023/05/14 04:02:43;;;;;;;;;;;;;;;;;;5033104;28;19917;-78
2023/05/14 04:05:08;;;;;;;;;;;;;;;;;;5033021;28;19913;-79
2023/05/14 04:07:34;;;;;;;;;;;;;;;;;;5031990;28;20436;-78
2023/05/14 04:10:00;;;;;;;;;;;;;;;;;;5048262;28;19917;-78
2023/05/14 04:12:25;;;;;;;;;;;;;;;;;;5047945;28;20000;-78
2023/05/14 04:14:51;;;;;;;;;;;;;;;;;;5048171;28;20347;-79
2023/05/14 04:17:16;;;;;;;;;;;;;;;;;;5031617;28;19917;-78
2023/05/14 04:19:41;;;;;;;;;;;;;;;;;;5032581;28;20295;-78
2023/05/14 04:22:07;;;;;;;;;;;;;;;;;;5031542;28;19920;-78
2023/05/14 04:24:32;;;;;;;;;;;;;;;;;;5032522;28;20445;-79
2023/05/14 04:26:57;;;;;;;;;;;;;;;;;;5032704;28;19917;-77
2023/05/14 04:29:23;;;;;;;;;;;;;;;;;;5031215;28;19967;-79
2023/05/14 04:31:48;;;;;;;;;;;;;;;;;;5032333;28;20020;-78
2023/05/14 04:34:14;;;;;;;;;;;;;;;;;;5032688;28;20342;-78
2023/05/14 04:36:39;;;;;;;;;;;;;;;;;;5032921;28;19919;-79
2023/05/14 04:39:05;;;;;;;;;;;;;;;;;;5048316;28;20291;-77
2023/05/14 04:41:30;;;;;;;;;;;;;;;;;;5032542;28;19936;-79
2023/05/14 04:43:55;;;;;;;;;;;;;;;;;;5032838;28;19913;-78
2023/05/14 04:46:21;;;;;;;;;;;;;;;;;;5023895;28;19952;-79
2023/05/14 04:48:47;;;;;;;;;;;;;;;;;;5011559;28;19924;-79
2023/05/14 04:51:12;;;;;;;;;;;;;;;;;;5011366;28;19988;-77
2023/05/14 04:53:38;;;;;;;;;;;;;;;;;;5012844;28;20291;-77
2023/05/14 04:56:03;;;;;;;;;;;;;;;;;;5014792;28;19920;-77
2023/05/14 04:58:31;;;;;;;;;;;;;;;;;;5031818;28;20005;-79
2023/05/14 05:00:56;;;;;;;;;;;;;;;;;;5049323;28;19970;-76
2023/05/14 05:03:22;;;;;;;;;;;;;;;;;;5034888;28;19917;-78
2023/05/14 05:05:47;;;;;;;;;;;;;;;;;;5035898;28;19913;-78
2023/05/14 05:08:12;;;;;;;;;;;;;;;;;;5035872;28;19917;-76
2023/05/14 05:10:38;;;;;;;;;;;;;;;;;;5051236;28;19939;-76
2023/05/14 05:13:03;;;;;;;;;;;;;;;;;;5050546;28;20400;-76
2023/05/14 05:15:29;;;;;;;;;;;;;;;;;;5034855;28;20444;-78
2023/05/14 05:17:54;;;;;;;;;;;;;;;;;;5048345;28;19935;-79
2023/05/14 05:20:19;;;;;;;;;;;;;;;;;;5032465;28;19959;-78
2023/05/14 05:22:45;;;;;;;;;;;;;;;;;;5032706;28;19975;-78
2023/05/14 05:25:11;;;;;;;;;;;;;;;;;;5033881;28;20004;-77
2023/05/14 05:27:37;;;;;;;;;;;;;;;;;;5051670;28;19963;-78
2023/05/14 05:30:03;;;;;;;;;;;;;;;;;;5038115;28;19917;-78
2023/05/14 05:32:29;;;;;;;;;;;;;;;;;;5048142;28;19913;-78
2023/05/14 05:34:54;;;;;;;;;;;;;;;;;;5062566;28;19920;-78
2023/05/14 05:37:20;;;;;;;;;;;;;;;;;;5039948;28;19920;-78
2023/05/14 05:39:47;;;;;;;;;;;;;;;;;;5035144;28;19913;-77
2023/05/14 05:42:12;;;;;;;;;;;;;;;;;;5034485;28;19959;-78
2023/05/14 05:44:37;;;;;;;;;;;;;;;;;;5034516;28;19975;-77
2023/05/14 05:47:03;;;;;;;;;;;;;;;;;;5021503;28;19913;-79
2023/05/14 05:49:28;;;;;;;;;;;;;;;;;;4998387;28;19921;-77
2023/05/14 05:51:54;;;;;;;;;;;;;;;;;;5014463;28;19914;-78
2023/05/14 05:54:19;;;;;;;;;;;;;;;;;;5015645;28;19917;-78
2023/05/14 05:56:44;;;;;;;;;;;;;;;;;;5019774;28;20284;-77
2023/05/14 05:59:10;;;;;;;;;;;;;;;;;;5049864;28;19979;-79
2023/05/14 06:01:35;;;;;;;;;;;;;;;;;;5029261;28;19913;-78
2023/05/14 06:04:01;;;;;;;;;;;;;;;;;;5014724;28;19917;-78
2023/05/14 06:06:26;;;;;;;;;;;;;;;;;;5015372;28;20265;-78
2023/05/14 06:08:52;;;;;;;;;;;;;;;;;;5015263;28;20376;-78
2023/05/14 06:11:17;;;;;;;;;;;;;;;;;;5030598;28;19918;-78
2023/05/14 06:13:42;;;;;;;;;;;;;;;;;;5030776;28;19913;-77
2023/05/14 06:16:08;;;;;;;;;;;;;;;;;;5015472;28;19925;-78
2023/05/14 06:18:33;;;;;;;;;;;;;;;;;;5015162;28;19936;-77
2023/05/14 06:20:59;;;;;;;;;;;;;;;;;;5014664;28;20284;-78
2023/05/14 06:23:25;;;;;;;;;;;;;;;;;;5014061;28;19920;-76
2023/05/14 06:25:50;;;;;;;;;;;;;;;;;;5030231;28;20373;-78
2023/05/14 06:28:15;;;;;;;;;;;;;;;;;;5014081;28;19917;-77
2023/05/14 06:30:41;;;;;;;;;;;;;;;;;;5013789;28;19968;-78
2023/05/14 06:33:06;;;;;;;;;;;;;;;;;;5014988;28;19924;-78
2023/05/14 06:35:33;;;;;;;;;;;;;;;;;;5014275;28;20339;-78
2023/05/14 06:37:58;;;;;;;;;;;;;;;;;;5015012;28;19932;-79
2023/05/14 06:40:24;;;;;;;;;;;;;;;;;;5029975;28;19914;-78
2023/05/14 06:42:49;;;;;;;;;;;;;;;;;;5014710;28;19920;-78
2023/05/14 06:45:14;;;;;;;;;;;;;;;;;;5014748;28;19952;-78
2023/05/14 06:47:40;;;;;;;;;;;;;;;;;;5027991;28;19914;-79
2023/05/14 06:50:05;;;;;;;;;;;;;;;;;;5014373;28;19926;-78
2023/05/14 06:52:31;;;;;;;;;;;;;;;;;;5014811;28;20036;-78
2023/05/14 06:54:56;;;;;;;;;;;;;;;;;;5014647;28;19917;-77
2023/05/14 06:57:21;;;;;;;;;;;;;;;;;;5024374;28;19913;-78
2023/05/14 06:59:47;;;;;;;;;;;;;;;;;;5034346;28;19914;-77
2023/05/14 07:02:12;;;;;;;;;;;;;;;;;;5034124;28;19924;-79
2023/05/14 07:04:38;;;;;;;;;;;;;;;;;;5034365;28;20395;-79
2023/05/14 07:07:04;;;;;;;;;;;;;;;;;;5034094;28;20012;-78
2023/05/14 07:09:29;;;;;;;;;;;;;;;;;;5032823;28;19928;-77
2023/05/14 07:11:55;;;;;;;;;;;;;;;;;;5032868;28;19963;-78
2023/05/14 07:14:20;;;;;;;;;;;;;;;;;;5033113;28;20387;-79
2023/05/14 07:16:46;;;;;;;;;;;;;;;;;;5033874;28;19987;-79
2023/05/14 07:19:11;;;;;;;;;;;;;;;;;;5032700;28;20331;-79
2023/05/14 07:21:36;;;;;;;;;;;;;;;;;;5034012;28;19913;-78
2023/05/14 07:24:02;;;;;;;;;;;;;;;;;;5032727;28;19964;-78
2023/05/14 07:26:27;;;;;;;;;;;;;;;;;;5032832;28;19913;-78
2023/05/14 07:28:52;;;;;;;;;;;;;;;;;;5032716;28;19924;-79
2023/05/14 07:31:18;;;;;;;;;;;;;;;;;;5032533;28;20012;-79
2023/05/14 07:33:43;;;;;;;;;;;;;;;;;;5034280;28;19949;-78
2023/05/14 07:36:09;;;;;;;;;;;;;;;;;;5034340;28;20320;-79
2023/05/14 07:38:34;;;;;;;;;;;;;;;;;;5033956;28;19913;-78
2023/05/14 07:40:59;;;;;;;;;;;;;;;;;;5049514;28;19920;-77
2023/05/14 07:43:25;;;;;;;;;;;;;;;;;;5034658;28;19921;-79
2023/05/14 07:45:50;;;;;;;;;;;;;;;;;;5030151;28;19920;-79
2023/05/14 07:48:15;;;;;;;;;;;;;;;;;;5013733;28;19960;-80
2023/05/14 07:50:41;;;;;;;;;;;;;;;;;;5023192;28;19913;-78
2023/05/14 07:53:06;;;;;;;;;;;;;;;;;;5026806;28;19921;-78
2023/05/14 07:55:32;;;;;;;;;;;;;;;;;;5027684;28;19913;-76
2023/05/14 07:57:57;;;;;;;;;;;;;;;;;;5037930;28;20125;-78
2023/05/14 08:00:23;;;;;;;;;;;;;;;;;;5063839;28;20036;-79
2023/05/14 08:02:49;;;;;;;;;;;;;;;;;;5050019;28;19974;-77
2023/05/14 08:05:14;;;;;;;;;;;;;;;;;;5047964;28;19914;-77
2023/05/14 08:07:40;;;;;;;;;;;;;;;;;;5038014;28;19913;-79
2023/05/14 08:10:06;;;;;;;;;;;;;;;;;;5049556;28;19917;-79
2023/05/14 08:12:32;;;;;;;;;;;;;;;;;;5032709;28;19913;-78
2023/05/14 08:14:59;;;;;;;;;;;;;;;;;;5047611;28;21470;-78
2023/05/14 08:17:24;;;;;;;;;;;;;;;;;;5033603;28;19980;-78
2023/05/14 08:19:49;;;;;;;;;;;;;;;;;;5031828;28;20007;-79
2023/05/14 08:22:15;;;;;;;;;;;;;;;;;;5032977;28;19913;-78
2023/05/14 08:24:41;;;;;;;;;;;;;;;;;;5032850;28;20292;-78
2023/05/14 08:27:07;;;;;;;;;;;;;;;;;;5033221;28;20376;-77
2023/05/14 08:29:32;;;;;;;;;;;;;;;;;;5032971;28;19917;-77
2023/05/14 08:31:58;;;;;;;;;;;;;;;;;;5031635;28;20344;-78
2023/05/14 08:34:23;;;;;;;;;;;;;;;;;;5031586;28;19913;-79
2023/05/14 08:36:48;;;;;;;;;;;;;;;;;;5032876;28;20039;-79
2023/05/14 08:39:14;;;;;;;;;;;;;;;;;;5031411;28;19913;-79
2023/05/14 08:41:39;;;;;;;;;;;;;;;;;;5032899;28;20380;-78
2023/05/14 08:44:05;;;;;;;;;;;;;;;;;;5033337;28;20011;-79
2023/05/14 08:46:31;;;;;;;;;;;;;;;;;;5024454;28;19913;-77
2023/05/14 08:48:57;;;;;;;;;;;;;;;;;;5013131;28;19972;-78
2023/05/14 08:51:22;;;;;;;;;;;;;;;;;;5010578;28;19918;-79
2023/05/14 08:53:48;;;;;;;;;;;;;;;;;;5012604;28;20463;-78
2023/05/14 08:56:13;;;;;;;;;;;;;;;;;;5012490;28;19910;-79
2023/05/14 08:58:38;;;;;;;;;;;;;;;;;;5030825;28;19924;-79
2023/05/14 09:01:04;;;;;;;;;;;;;;;;;;5030875;28;19913;-79
2023/05/14 09:03:30;;;;;;;;;;;;;;;;;;5032366;28;19925;-78
2023/05/14 09:05:55;;;;;;;;;;;;;;;;;;5031019;28;19956;-78
2023/05/14 09:08:21;;;;;;;;;;;;;;;;;;5047770;28;19917;-77
2023/05/14 09:10:46;;;;;;;;;;;;;;;;;;5032333;28;19913;-79
2023/05/14 09:13:11;;;;;;;;;;;;;;;;;;5032438;28;19920;-79
2023/05/14 09:15:37;;;;;;;;;;;;;;;;;;5032084;28;19917;-78
2023/05/14 09:18:02;;;;;;;;;;;;;;;;;;5031350;28;20283;-78
2023/05/14 09:20:27;;;;;;;;;;;;;;;;;;5032242;28;20127;-78
2023/05/14 09:22:53;;;;;;;;;;;;;;;;;;5031858;28;19913;-78
2023/05/14 09:25:18;;;;;;;;;;;;;;;;;;5047570;28;19939;-79
2023/05/14 09:27:44;;;;;;;;;;;;;;;;;;5030638;28;20440;-77
2023/05/14 09:30:09;;;;;;;;;;;;;;;;;;5030671;28;19921;-78
2023/05/14 09:32:34;;;;;;;;;;;;;;;;;;5047210;28;19974;-79
2023/05/14 09:35:00;;;;;;;;;;;;;;;;;;5031042;28;20321;-78
2023/05/14 09:37:25;;;;;;;;;;;;;;;;;;5026503;28;19920;-79
2023/05/14 09:39:50;;;;;;;;;;;;;;;;;;5030217;28;19956;-78
2023/05/14 09:42:16;;;;;;;;;;;;;;;;;;5028296;28;19914;-78
2023/05/14 09:44:41;;;;;;;;;;;;;;;;;;5027297;28;19918;-79
2023/05/14 09:47:07;;;;;;;;;;;;;;;;;;5024271;28;20380;-78
2023/05/14 09:49:32;;;;;;;;;;;;;;;;;;5030199;28;19917;-78
2023/05/14 09:51:57;;;;;;;;;;;;;;;;;;5030324;28;20197;-77
2023/05/14 09:54:23;;;;;;;;;;;;;;;;;;5028804;28;20289;-78
2023/05/14 09:56:48;;;;;;;;;;;;;;;;;;5015196;28;20037;-78
2023/05/14 09:59:14;;;;;;;;;;;;;;;;;;5030903;28;19921;-79
2023/05/14 10:01:39;;;;;;;;;;;;;;;;;;5030513;28;19920;-79
2023/05/14 10:04:05;;;;;;;;;;;;;;;;;;5030631;28;19967;-78
2023/05/14 10:06:30;;;;;;;;;;;;;;;;;;5031790;28;19991;-79
2023/05/14 10:08:56;;;;;;;;;;;;;;;;;;5031872;28;19917;-80
2023/05/14 10:11:23;;;;;;;;;;;;;;;;;;5033093;28;19920;-79
2023/05/14 10:13:49;;;;;;;;;;;;;;;;;;5035164;28;20423;-79
2023/05/14 10:16:14;;;;;;;;;;;;;;;;;;5034319;28;19936;-78
2023/05/14 10:18:40;;;;;;;;;;;;;;;;;;5034891;28;19944;-77
2023/05/14 10:21:05;;;;;;;;;;;;;;;;;;5035065;28;20394;-78
2023/05/14 10:23:30;;;;;;;;;;;;;;;;;;5050753;28;20437;-78
2023/05/14 10:25:56;;;;;;;;;;;;;;;;;;5035018;28;20332;-79
2023/05/14 10:28:21;;;;;;;;;;;;;;;;;;5034479;28;19924;-79
2023/05/14 10:30:47;;;;;;;;;;;;;;;;;;5049339;28;19920;-78
2023/05/14 10:33:14;;;;;;;;;;;;;;;;;;5034924;28;19977;-76
2023/05/14 10:35:39;;;;;;;;;;;;;;;;;;5017826;28;19957;-78
2023/05/14 10:38:04;;;;;;;;;;;;;;;;;;5016828;28;20300;-79
2023/05/14 10:40:30;;;;;;;;;;;;;;;;;;5020143;28;19914;-77
2023/05/14 10:42:55;;;;;;;;;;;;;;;;;;5020519;28;20320;-78
2023/05/14 10:45:21;;;;;;;;;;;;;;;;;;5023324;28;19945;-78
2023/05/14 10:47:46;;;;;;;;;;;;;;;;;;5046350;28;19913;-77
2023/05/14 10:50:12;;;;;;;;;;;;;;;;;;5044475;28;19917;-78
2023/05/14 10:52:37;;;;;;;;;;;;;;;;;;5046453;28;19996;-77
2023/05/14 10:55:02;;;;;;;;;;;;;;;;;;5045648;28;19913;-77
2023/05/14 10:57:30;;;;;;;;;;;;;;;;;;5036311;28;19918;-77
2023/05/14 10:59:56;;;;;;;;;;;;;;;;;;5038466;28;20291;-78
2023/05/14 11:02:21;;;;;;;;;;;;;;;;;;5050299;28;19972;-78
2023/05/14 11:04:47;;;;;;;;;;;;;;;;;;5034435;28;19924;-78
2023/05/14 11:07:12;;;;;;;;;;;;;;;;;;5049593;28;19916;-79
2023/05/14 11:09:38;;;;;;;;;;;;;;;;;;5034045;28;20013;-79
2023/05/14 11:12:03;;;;;;;;;;;;;;;;;;5034347;28;20296;-78
2023/05/14 11:14:28;;;;;;;;;;;;;;;;;;5033206;28;19924;-78
2023/05/14 11:16:54;;;;;;;;;;;;;;;;;;5033279;28;19924;-79
2023/05/14 11:19:20;;;;;;;;;;;;;;;;;;5034428;28;19913;-79
2023/05/14 11:21:46;;;;;;;;;;;;;;;;;;5034419;28;19913;-78
2023/05/14 11:24:11;;;;;;;;;;;;;;;;;;5049761;28;19920;-79
2023/05/14 11:26:36;;;;;;;;;;;;;;;;;;5034643;28;20012;-79
2023/05/14 11:29:02;;;;;;;;;;;;;;;;;;5034075;28;20383;-79
2023/05/14 11:31:27;;;;;;;;;;;;;;;;;;5026134;28;19914;-79
2023/05/14 11:33:53;;;;;;;;;;;;;;;;;;5014262;28;19920;-79
2023/05/14 11:36:18;;;;;;;;;;;;;;;;;;5014172;28;20385;-78
2023/05/14 11:38:43;;;;;;;;;;;;;;;;;;5012978;28;19921;-79
2023/05/14 11:41:09;;;;;;;;;;;;;;;;;;5013658;28;20013;-79
2023/05/14 11:43:35;;;;;;;;;;;;;;;;;;5012944;28;20377;-79
2023/05/14 11:46:00;;;;;;;;;;;;;;;;;;5012868;28;19937;-79
2023/05/14 11:48:26;;;;;;;;;;;;;;;;;;5013728;28;20389;-78
2023/05/14 11:50:51;;;;;;;;;;;;;;;;;;5013755;28;20393;-79
2023/05/14 11:53:17;;;;;;;;;;;;;;;;;;5012697;28;19919;-78
2023/05/14 11:55:42;;;;;;;;;;;;;;;;;;5013371;28;19918;-78
2023/05/14 11:58:07;;;;;;;;;;;;;;;;;;5024654;28;19920;-78
2023/05/14 12:00:33;;;;;;;;;;;;;;;;;;5032064;28;20349;-78
2023/05/14 12:02:58;;;;;;;;;;;;;;;;;;5023032;22;20398;-77
2023/05/14 12:05:24;;;;;;;;;;;;;;;;;;4994014;28;19953;-77
2023/05/14 12:07:49;;;;;;;;;;;;;;;;;;4993888;28;19914;-77
2023/05/14 12:10:14;;;;;;;;;;;;;;;;;;4991968;28;19972;-78
2023/05/14 12:12:40;;;;;;;;;;;;;;;;;;4994003;28;19921;-78
2023/05/14 12:15:05;;;;;;;;;;;;;;;;;;4976751;28;19914;-78
2023/05/14 12:17:31;;;;;;;;;;;;;;;;;;4993939;28;19910;-79
2023/05/14 12:19:56;;;;;;;;;;;;;;;;;;4993562;28;20373;-80
2023/05/14 12:22:22;;;;;;;;;;;;;;;;;;4976417;28;19925;-79
2023/05/14 12:24:47;;;;;;;;;;;;;;;;;;4993257;28;19914;-79
2023/05/14 12:27:12;;;;;;;;;;;;;;;;;;4995527;28;19921;-78
2023/05/14 12:29:38;;;;;;;;;;;;;;;;;;4992148;28;19964;-78
2023/05/14 12:32:07;;;;;;;;;;;;;;;;;;4980084;28;20389;-80
2023/05/14 12:34:32;;;;;;;;;;;;;;;;;;4974405;28;19969;-80
2023/05/14 12:36:58;;;;;;;;;;;;;;;;;;4958584;28;19986;-78
2023/05/14 12:39:24;;;;;;;;;;;;;;;;;;4975929;28;19925;-79
2023/05/14 12:41:49;;;;;;;;;;;;;;;;;;4975593;28;19914;-80
2023/05/14 12:44:15;;;;;;;;;;;;;;;;;;4974465;28;19976;-79
2023/05/14 12:46:40;;;;;;;;;;;;;;;;;;4974699;28;19921;-79
2023/05/14 12:49:06;;;;;;;;;;;;;;;;;;4974219;28;20360;-78
2023/05/14 12:51:31;;;;;;;;;;;;;;;;;;4975858;28;19922;-78
2023/05/14 12:53:59;;;;;;;;;;;;;;;;;;4973562;28;19914;-78
2023/05/14 12:56:27;;;;;;;;;;;;;;;;;;4972514;28;20305;-78
2023/05/14 12:58:52;;;;;;;;;;;;;;;;;;5005649;28;19918;-79
2023/05/14 13:01:17;;;;;;;;;;;;;;;;;;4993290;28;20344;-79
2023/05/14 13:03:43;;;;;;;;;;;;;;;;;;4993535;28;19917;-79
2023/05/14 13:06:08;;;;;;;;;;;;;;;;;;4993378;28;19930;-79
2023/05/14 13:08:34;;;;;;;;;;;;;;;;;;4993604;28;19955;-79
2023/05/14 13:10:59;;;;;;;;;;;;;;;;;;4992801;28;19913;-76
2023/05/14 13:13:25;;;;;;;;;;;;;;;;;;4993114;28;20278;-79
2023/05/14 13:15:50;;;;;;;;;;;;;;;;;;4993464;28;19918;-80
2023/05/14 13:18:15;;;;;;;;;;;;;;;;;;4993015;28;19914;-79
2023/05/14 13:20:41;;;;;;;;;;;;;;;;;;4991819;28;20289;-78
2023/05/14 13:23:06;;;;;;;;;;;;;;;;;;4993363;28;19942;-78
2023/05/14 13:25:32;;;;;;;;;;;;;;;;;;4992435;28;20504;-78
2023/05/14 13:27:57;;;;;;;;;;;;;;;;;;4993963;28;19920;-79
2023/05/14 13:30:22;;;;;;;;;;;;;;;;;;4988607;28;19918;-78
2023/05/14 13:32:48;;;;;;;;;;;;;;;;;;4973506;28;19922;-79
2023/05/14 13:35:13;;;;;;;;;;;;;;;;;;4974225;28;19921;-78
2023/05/14 13:37:39;;;;;;;;;;;;;;;;;;4974391;28;19969;-77
2023/05/14 13:40:07;;;;;;;;;;;;;;;;;;4983825;28;19968;-77
2023/05/14 13:42:32;;;;;;;;;;;;;;;;;;4987520;28;19920;-77
2023/05/14 13:44:57;;;;;;;;;;;;;;;;;;4982001;28;20000;-79
2023/05/14 13:47:23;;;;;;;;;;;;;;;;;;4970393;28;19918;-77
2023/05/14 13:49:48;;;;;;;;;;;;;;;;;;4988755;28;20375;-76
2023/05/14 13:52:14;;;;;;;;;;;;;;;;;;4984280;28;19925;-77
2023/05/14 13:54:39;;;;;;;;;;;;;;;;;;4978291;28;19914;-76
2023/05/14 13:57:05;;;;;;;;;;;;;;;;;;4975884;28;20300;-77
2023/05/14 13:59:30;;;;;;;;;;;;;;;;;;4995174;28;20273;-77
2023/05/14 14:01:56;;;;;;;;;;;;;;;;;;4978500;28;20329;-78
2023/05/14 14:04:23;;;;;;;;;;;;;;;;;;4995095;28;20418;-75
2023/05/14 14:06:48;;;;;;;;;;;;;;;;;;4979978;28;19922;-75
2023/05/14 14:09:14;;;;;;;;;;;;;;;;;;4996253;28;20316;-77
2023/05/14 14:11:39;;;;;;;;;;;;;;;;;;4996024;28;19941;-75
2023/05/14 14:14:05;;;;;;;;;;;;;;;;;;4995818;28;20030;-76
2023/05/14 14:16:30;;;;;;;;;;;;;;;;;;4995153;28;20017;-76
2023/05/14 14:18:56;;;;;;;;;;;;;;;;;;4996410;28;19914;-76
2023/05/14 14:21:21;;;;;;;;;;;;;;;;;;4995093;28;19920;-77
2023/05/14 14:23:47;;;;;;;;;;;;;;;;;;4994897;28;19913;-76
2023/05/14 14:26:12;;;;;;;;;;;;;;;;;;4974594;28;20381;-77
2023/05/14 14:28:39;;;;;;;;;;;;;;;;;;4974064;28;19922;-77
2023/05/14 14:31:04;;;;;;;;;;;;;;;;;;4974505;28;20374;-75
2023/05/14 14:33:30;;;;;;;;;;;;;;;;;;4974990;28;19921;-77
2023/05/14 14:35:55;;;;;;;;;;;;;;;;;;4958945;28;19945;-76
2023/05/14 14:38:21;;;;;;;;;;;;;;;;;;4976312;28;19922;-76
2023/05/14 14:40:46;;;;;;;;;;;;;;;;;;4991130;28;20345;-76
2023/05/14 14:43:11;;;;;;;;;;;;;;;;;;4975779;28;20012;-77
2023/05/14 14:45:37;;;;;;;;;;;;;;;;;;4975082;28;20290;-77
2023/05/14 14:48:02;;;;;;;;;;;;;;;;;;4975556;28;20297;-77
2023/05/14 14:50:28;;;;;;;;;;;;;;;;;;4974156;28;20001;-77
2023/05/14 14:52:53;;;;;;;;;;;;;;;;;;4974375;28;19914;-76
2023/05/14 14:55:18;;;;;;;;;;;;;;;;;;4975931;28;19914;-77
2023/05/14 14:57:44;;;;;;;;;;;;;;;;;;4975514;28;20562;-77
2023/05/14 15:00:09;;;;;;;;;;;;;;;;;;4975560;28;20297;-76
2023/05/14 15:02:37;;;;;;;;;;;;;;;;;;4975029;28;20293;-77
2023/05/14 15:05:04;;;;;;;;;;;;;;;;;;4958669;28;19922;-77
2023/05/14 15:07:31;;;;;;;;;;;;;;;;;;4974694;28;19918;-76
2023/05/14 15:09:57;;;;;;;;;;;;;;;;;;4990542;28;19922;-77
2023/05/14 15:12:22;;;;;;;;;;;;;;;;;;4974265;28;19960;-79
2023/05/14 15:14:47;;;;;;;;;;;;;;;;;;4990643;28;19918;-74
2023/05/14 15:17:13;;;;;;;;;;;;;;;;;;4975608;28;19921;-76
2023/05/14 15:19:38;;;;;;;;;;;;;;;;;;4990116;28;20297;-75
2023/05/14 15:22:04;;;;;;;;;;;;;;;;;;4974340;28;19914;-77
2023/05/14 15:24:29;;;;;;;;;;;;;;;;;;4978284;28;20486;-76
2023/05/14 15:26:54;;;;;;;;;;;;;;;;;;4975320;28;19921;-78
2023/05/14 15:29:20;;;;;;;;;;;;;;;;;;4975511;28;19918;-77
2023/05/14 15:31:45;;;;;;;;;;;;;;;;;;4975489;28;19968;-76
2023/05/14 15:34:11;;;;;;;;;;;;;;;;;;4957895;28;19914;-76
2023/05/14 15:36:36;;;;;;;;;;;;;;;;;;4974085;28;20392;-75
2023/05/14 15:39:01;;;;;;;;;;;;;;;;;;4975270;28;19931;-76
2023/05/14 15:41:27;;;;;;;;;;;;;;;;;;4980887;28;20373;-77
2023/05/14 15:43:52;;;;;;;;;;;;;;;;;;4993190;28;20408;-77
2023/05/14 15:46:18;;;;;;;;;;;;;;;;;;4994642;28;19937;-77
2023/05/14 15:48:43;;;;;;;;;;;;;;;;;;4994454;28;19918;-74
2023/05/14 15:51:09;;;;;;;;;;;;;;;;;;4993274;28;19914;-75
2023/05/14 15:53:34;;;;;;;;;;;;;;;;;;4994591;28;19921;-76
2023/05/14 15:56:00;;;;;;;;;;;;;;;;;;4993181;28;20399;-77
2023/05/14 15:58:25;;;;;;;;;;;;;;;;;;4992402;28;20472;-77
2023/05/14 16:00:51;;;;;;;;;;;;;;;;;;4974759;28;19918;-77
2023/05/14 16:03:16;;;;;;;;;;;;;;;;;;4975488;28;19996;-75
2023/05/14 16:05:41;;;;;;;;;;;;;;;;;;4974820;28;20304;-77
2023/05/14 16:08:07;;;;;;;;;;;;;;;;;;4972822;28;19914;-77
2023/05/14 16:10:32;;;;;;;;;;;;;;;;;;4974540;28;20370;-77
2023/05/14 16:12:58;;;;;;;;;;;;;;;;;;4973549;28;19918;-77
2023/05/14 16:15:23;;;;;;;;;;;;;;;;;;4974649;28;20010;-77
2023/05/14 16:17:48;;;;;;;;;;;;;;;;;;4987382;28;19978;-77
2023/05/14 16:20:14;;;;;;;;;;;;;;;;;;4992242;28;19914;-77
2023/05/14 16:22:39;;;;;;;;;;;;;;;;;;4993558;28;19916;-76
2023/05/14 16:25:05;;;;;;;;;;;;;;;;;;4994846;28;20385;-77
2023/05/14 16:27:30;;;;;;;;;;;;;;;;;;4994752;28;19914;-76
2023/05/14 16:29:56;;;;;;;;;;;;;;;;;;4997877;28;19922;-77
2023/05/14 16:32:23;;;;;;;;;;;;;;;;;;5008139;28;19965;-77